Time;durP1;ratioP1;P1;durP2;ratioP2;P2;SDS_P1;SDS_P2;PMS_P1;PMS_P2;Temp;Humidity;BMP_temperature;BMP_pressure;BME280_temperature;BME280_humidity;BME280_pressure;Samples;Min_cycle;Max_cycle;Signal;HPM_P1;HPM_P2
2022/05/22 00:04:45;;;;;;;2.83;2.22;;;;;;;;;;10638145;28;20207;-66
2022/05/22 00:09:48;;;;;;;4.97;2.70;;;;;;;;;;10638341;28;20419;-66
2022/05/22 00:14:50;;;;;;;5.63;2.70;;;;;;;;;;10638775;27;20035;-66
2022/05/22 00:19:54;;;;;;;3.72;2.42;;;;;;;;;;10637283;27;20046;-67
2022/05/22 00:24:57;;;;;;;5.05;2.65;;;;;;;;;;10638489;27;20039;-67
2022/05/22 00:30:00;;;;;;;3.28;2.47;;;;;;;;;;10639203;27;20062;-66
2022/05/22 00:35:04;;;;;;;5.25;2.92;;;;;;;;;;10643694;27;20095;-67
2022/05/22 00:40:08;;;;;;;6.28;3.15;;;;;;;;;;10626726;27;20349;-67
2022/05/22 00:45:11;;;;;;;3.15;2.80;;;;;;;;;;10647001;27;20039;-67
2022/05/22 00:50:15;;;;;;;4.22;3.13;;;;;;;;;;10647493;27;20050;-67
2022/05/22 00:55:20;;;;;;;3.03;2.60;;;;;;;;;;10648607;27;20062;-67
2022/05/22 01:00:27;;;;;;;3.63;2.83;;;;;;;;;;10649185;27;20338;-66
2022/05/22 01:05:31;;;;;;;7.25;3.53;;;;;;;;;;10643351;27;20084;-66
2022/05/22 01:10:36;;;;;;;9.43;3.70;;;;;;;;;;10645024;27;20051;-66
2022/05/22 01:15:38;;;;;;;3.65;3.28;;;;;;;;;;10646162;27;20066;-66
2022/05/22 01:20:48;;;;;;;4.22;3.65;;;;;;;;;;10644657;27;20081;-67
2022/05/22 01:25:52;;;;;;;9.75;4.47;;;;;;;;;;10645321;27;20062;-67
2022/05/22 01:30:55;;;;;;;4.87;3.87;;;;;;;;;;10644826;27;20059;-67
2022/05/22 01:35:58;;;;;;;7.22;3.95;;;;;;;;;;10645465;27;20047;-67
2022/05/22 01:41:02;;;;;;;7.88;4.25;;;;;;;;;;10641238;27;20065;-66
2022/05/22 01:46:04;;;;;;;7.67;5.00;;;;;;;;;;10645110;27;20050;-66
2022/05/22 01:51:07;;;;;;;5.95;4.38;;;;;;;;;;10644821;27;20066;-66
2022/05/22 01:56:11;;;;;;;6.47;4.55;;;;;;;;;;10645671;27;20076;-66
2022/05/22 02:01:13;;;;;;;6.32;4.43;;;;;;;;;;10643001;27;20108;-66
2022/05/22 02:06:15;;;;;;;7.00;4.57;;;;;;;;;;10643301;27;20058;-67
2022/05/22 02:11:19;;;;;;;6.88;4.45;;;;;;;;;;10641565;27;20275;-66
2022/05/22 02:16:21;;;;;;;5.85;4.63;;;;;;;;;;10642982;27;20054;-66
2022/05/22 02:21:23;;;;;;;5.70;4.60;;;;;;;;;;10642514;27;20070;-67
2022/05/22 02:26:27;;;;;;;11.20;4.88;;;;;;;;;;10640057;27;20089;-67
2022/05/22 02:31:30;;;;;;;5.53;4.43;;;;;;;;;;10641509;27;20301;-67
2022/05/22 02:36:33;;;;;;;10.63;5.57;;;;;;;;;;10642325;27;20354;-66
2022/05/22 02:41:36;;;;;;;7.10;4.70;;;;;;;;;;10640422;27;20075;-65
2022/05/22 02:46:41;;;;;;;6.60;4.72;;;;;;;;;;10641481;27;20100;-66
2022/05/22 02:51:44;;;;;;;8.48;4.57;;;;;;;;;;10624754;27;20047;-66
2022/05/22 02:56:47;;;;;;;8.43;4.93;;;;;;;;;;10638738;27;20059;-66
2022/05/22 03:01:49;;;;;;;7.72;4.85;;;;;;;;;;10630762;27;20103;-66
2022/05/22 03:06:52;;;;;;;8.55;4.30;;;;;;;;;;10643356;27;20088;-66
2022/05/22 03:11:55;;;;;;;5.45;3.60;;;;;;;;;;10642411;27;20049;-66
2022/05/22 03:16:58;;;;;;;4.43;3.80;;;;;;;;;;10640161;27;20039;-67
2022/05/22 03:22:00;;;;;;;4.68;2.90;;;;;;;;;;10642717;27;20051;-66
2022/05/22 03:27:06;;;;;;;6.45;3.80;;;;;;;;;;10640934;27;20044;-66
2022/05/22 03:32:09;;;;;;;3.35;3.05;;;;;;;;;;10641781;27;20051;-66
2022/05/22 03:37:14;;;;;;;3.20;2.92;;;;;;;;;;10640078;27;20043;-66
2022/05/22 03:42:17;;;;;;;3.03;2.80;;;;;;;;;;10637642;28;20407;-66
2022/05/22 03:47:19;;;;;;;;;;;;;;;;;;10642177;27;20051;-66
2022/05/22 03:52:22;;;;;;;2.88;2.58;;;;;;;;;;10640034;28;19916;-67
2022/05/22 03:57:25;;;;;;;5.00;2.20;;;;;;;;;;10639451;27;20051;-66
2022/05/22 04:02:28;;;;;;;2.42;1.50;;;;;;;;;;10640725;27;20100;-66
2022/05/22 04:07:31;;;;;;;4.83;1.90;;;;;;;;;;10641295;27;20107;-67
2022/05/22 04:12:35;;;;;;;3.88;2.67;;;;;;;;;;10648350;27;20067;-67
2022/05/22 04:17:38;;;;;;;3.78;2.47;;;;;;;;;;10648530;27;20112;-67
2022/05/22 04:27:58;;;;;;;2.00;1.50;;;;;;;;;;10648424;27;20093;-66
2022/05/22 04:33:02;;;;;;;1.95;1.73;;;;;;;;;;10648784;27;20059;-67
2022/05/22 04:38:04;;;;;;;2.58;1.67;;;;;;;;;;10646067;27;20051;-67
2022/05/22 04:43:09;;;;;;;4.78;1.83;;;;;;;;;;10648049;27;20055;-67
2022/05/22 04:48:11;;;;;;;4.05;2.67;;;;;;;;;;10647319;27;20259;-68
2022/05/22 04:53:14;;;;;;;4.45;2.47;;;;;;;;;;10645913;27;20050;-68
2022/05/22 04:58:18;;;;;;;4.70;2.70;;;;;;;;;;10646693;27;20050;-68
2022/05/22 05:03:20;;;;;;;2.53;2.25;;;;;;;;;;10644783;27;20224;-70
2022/05/22 05:08:23;;;;;;;3.63;2.47;;;;;;;;;;10647581;27;20043;-67
2022/05/22 05:13:28;;;;;;;3.33;3.03;;;;;;;;;;10640088;27;20047;-66
2022/05/22 05:18:31;;;;;;;5.80;3.75;;;;;;;;;;10643946;27;20046;-69
2022/05/22 05:23:33;;;;;;;10.35;5.75;;;;;;;;;;10642696;27;20043;-67
2022/05/22 05:28:38;;;;;;;9.23;5.93;;;;;;;;;;10645700;27;20074;-67
2022/05/22 05:33:41;;;;;;;6.85;4.07;;;;;;;;;;10644174;27;20070;-67
2022/05/22 05:38:43;;;;;;;5.80;3.55;;;;;;;;;;10645310;27;20047;-67
2022/05/22 05:43:46;;;;;;;5.95;3.60;;;;;;;;;;10643112;27;20039;-67
2022/05/22 05:48:49;;;;;;;5.43;3.72;;;;;;;;;;10637653;27;20073;-68
2022/05/22 05:53:51;;;;;;;4.80;3.20;;;;;;;;;;10645086;27;20326;-68
2022/05/22 05:58:55;;;;;;;6.13;2.65;;;;;;;;;;10642727;27;20274;-68
2022/05/22 06:03:57;;;;;;;5.63;2.20;;;;;;;;;;10642815;27;20152;-66
2022/05/22 06:09:00;;;;;;;2.03;1.80;;;;;;;;;;10644416;27;20043;-67
2022/05/22 06:14:04;;;;;;;4.40;2.37;;;;;;;;;;10644252;27;20043;-67
2022/05/22 06:19:06;;;;;;;2.72;2.13;;;;;;;;;;10624410;27;20070;-67
2022/05/22 06:24:08;;;;;;;3.55;1.60;;;;;;;;;;10629951;27;20101;-67
2022/05/22 06:29:14;;;;;;;4.38;2.20;;;;;;;;;;10641779;27;20077;-68
2022/05/22 06:34:17;;;;;;;2.75;1.00;;;;;;;;;;10657193;27;20039;-66
2022/05/22 06:44:41;;;;;;;1.88;1.00;;;;;;;;;;10642531;27;20059;-68
2022/05/22 06:49:43;;;;;;;1.08;0.90;;;;;;;;;;10606501;27;20081;-68
2022/05/22 06:54:45;;;;;;;1.90;0.90;;;;;;;;;;10600989;27;20327;-70
2022/05/22 06:59:53;;;;;;;2.88;0.70;;;;;;;;;;10636693;27;20076;-67
2022/05/22 07:04:57;;;;;;;2.67;1.08;;;;;;;;;;10639872;27;20065;-67
2022/05/22 07:09:59;;;;;;;3.35;1.25;;;;;;;;;;10640336;27;20070;-68
2022/05/22 07:15:04;;;;;;;1.05;0.70;;;;;;;;;;10628863;27;20089;-67
2022/05/22 07:20:08;;;;;;;1.35;0.70;;;;;;;;;;10630239;27;20109;-66
2022/05/22 07:25:10;;;;;;;0.65;0.65;;;;;;;;;;10599967;27;20047;-69
2022/05/22 07:30:14;;;;;;;1.15;0.98;;;;;;;;;;10609298;28;20083;-68
2022/05/22 07:35:17;;;;;;;1.63;0.95;;;;;;;;;;10637555;27;20051;-70
2022/05/22 07:40:19;;;;;;;1.23;0.80;;;;;;;;;;10641269;27;20210;-71
2022/05/22 07:45:24;;;;;;;1.00;0.90;;;;;;;;;;10648775;27;20047;-68
2022/05/22 07:50:28;;;;;;;21.23;8.55;;;;;;;;;;10650299;27;20051;-69
2022/05/22 07:55:30;;;;;;;4.45;2.22;;;;;;;;;;10648235;27;20065;-70
2022/05/22 08:00:34;;;;;;;5.13;2.28;;;;;;;;;;10647004;27;20051;-67
2022/05/22 08:05:36;;;;;;;4.05;1.98;;;;;;;;;;10646772;27;20081;-69
2022/05/22 08:10:41;;;;;;;1.90;1.13;;;;;;;;;;10648416;27;20091;-69
2022/05/22 08:15:44;;;;;;;1.10;0.98;;;;;;;;;;10616755;27;20162;-66
2022/05/22 08:20:49;;;;;;;1.80;0.80;;;;;;;;;;10646595;27;20067;-66
2022/05/22 08:25:51;;;;;;;2.45;0.65;;;;;;;;;;10646807;27;20054;-68
2022/05/22 08:30:55;;;;;;;1.10;0.50;;;;;;;;;;10639442;27;20046;-67
2022/05/22 08:35:57;;;;;;;1.00;0.90;;;;;;;;;;10647858;27;20062;-70
2022/05/22 08:41:09;;;;;;;4.78;2.25;;;;;;;;;;10629931;27;20050;-70
2022/05/22 08:46:15;;;;;;;1.73;1.05;;;;;;;;;;10653787;27;20059;-70
2022/05/22 08:51:21;;;;;;;1.45;0.95;;;;;;;;;;10633127;27;20047;-70
2022/05/22 09:01:54;;;;;;;1.75;1.23;;;;;;;;;;10657615;27;20047;-69
2022/05/22 09:07:05;;;;;;;3.08;0.98;;;;;;;;;;10613229;27;20366;-69
2022/05/22 09:12:33;;;;;;;2.72;0.88;;;;;;;;;;10637108;27;20070;-71
2022/05/22 09:17:41;;;;;;;0.82;0.60;;;;;;;;;;10652797;27;20047;-70
2022/05/22 09:33:56;;;;;;;1.88;1.00;;;;;;;;;;10834346;23;20059;-69
2022/05/22 09:39:08;;;;;;;0.98;0.73;;;;;;;;;;10219154;29;20393;-69
2022/05/22 09:44:33;;;;;;;2.38;1.27;;;;;;;;;;10220997;28;20262;-70
2022/05/22 09:49:52;;;;;;;6.57;1.40;;;;;;;;;;10211172;29;20395;-73
2022/05/22 09:55:11;;;;;;;1.45;0.98;;;;;;;;;;10236659;29;20067;-69
2022/05/22 10:00:17;;;;;;;1.13;0.90;;;;;;;;;;10222339;28;20412;-68
2022/05/22 10:05:32;;;;;;;0.88;0.63;;;;;;;;;;10199772;29;20047;-68
2022/05/22 10:10:47;;;;;;;1.15;1.05;;;;;;;;;;10222163;29;20195;-68
2022/05/22 10:16:03;;;;;;;3.50;0.98;;;;;;;;;;10246635;28;20052;-68
2022/05/22 10:21:16;;;;;;;1.23;0.77;;;;;;;;;;10244783;28;20036;-69
2022/05/22 10:26:29;;;;;;;0.65;0.65;;;;;;;;;;10246438;28;20090;-69
2022/05/22 10:31:41;;;;;;;1.23;0.83;;;;;;;;;;10230247;28;20115;-68
2022/05/22 10:36:49;;;;;;;1.10;0.63;;;;;;;;;;10207088;29;20066;-67
2022/05/22 10:47:27;;;;;;;1.55;1.05;;;;;;;;;;10218099;29;20047;-68
2022/05/22 10:52:34;;;;;;;3.63;1.10;;;;;;;;;;10242555;29;20051;-68
2022/05/22 10:57:37;;;;;;;3.22;1.40;;;;;;;;;;10232905;29;20056;-67
2022/05/22 11:02:39;;;;;;;0.95;0.93;;;;;;;;;;10230610;28;20258;-70
2022/05/22 11:07:46;;;;;;;3.35;1.60;;;;;;;;;;10192641;28;20173;-66
2022/05/22 11:13:00;;;;;;;2.50;0.85;;;;;;;;;;10235072;29;20060;-69
2022/05/22 11:18:08;;;;;;;1.45;0.90;;;;;;;;;;10231298;29;20067;-68
2022/05/22 11:23:38;;;;;;;3.00;1.40;;;;;;;;;;10213313;29;20056;-69
2022/05/22 12:48:36;;;;;;;2.08;1.30;;;;;;;;;;10544142;27;20508;-68
2022/05/22 12:53:40;;;;;;;4.15;1.60;;;;;;;;;;10519778;28;20347;-68
2022/05/22 12:58:45;;;;;;;1.35;0.90;;;;;;;;;;10477198;28;20076;-68
2022/05/22 13:03:52;;;;;;;1.00;0.90;;;;;;;;;;10519275;28;20067;-68
2022/05/22 13:09:00;;;;;;;2.90;0.98;;;;;;;;;;10558191;28;20040;-66
2022/05/22 13:14:02;;;;;;;8.65;1.17;;;;;;;;;;10547576;28;20421;-69
2022/05/22 13:19:18;;;;;;;0.80;0.80;;;;;;;;;;10546447;28;20089;-66
2022/05/22 13:24:29;;;;;;;5.28;0.95;;;;;;;;;;10561610;28;20082;-68
2022/05/22 13:29:44;;;;;;;1.10;0.75;;;;;;;;;;10481937;28;20041;-68
2022/05/22 13:34:51;;;;;;;7.95;0.85;;;;;;;;;;10487906;28;20330;-67
2022/05/22 13:40:14;;;;;;;1.70;0.70;;;;;;;;;;10539009;28;20242;-69
2022/05/22 13:45:38;;;;;;;0.88;0.88;;;;;;;;;;10527123;28;20113;-66
2022/05/22 13:56:05;;;;;;;5.97;0.98;;;;;;;;;;10534860;28;20115;-68
2022/05/22 14:01:11;;;;;;;1.30;0.90;;;;;;;;;;10470687;28;20053;-66
2022/05/22 14:06:17;;;;;;;1.35;0.95;;;;;;;;;;10528377;28;20204;-67
2022/05/22 14:11:23;;;;;;;1.75;1.30;;;;;;;;;;10534968;28;20212;-67
2022/05/22 14:16:27;;;;;;;1.20;0.90;;;;;;;;;;10531395;28;20050;-66
2022/05/22 14:21:32;;;;;;;2.15;0.77;;;;;;;;;;10521037;28;20246;-70
2022/05/22 14:26:35;;;;;;;1.95;1.10;;;;;;;;;;10501910;28;20100;-68
2022/05/22 14:31:46;;;;;;;1.35;1.08;;;;;;;;;;10476397;28;20047;-68
2022/05/22 14:36:54;;;;;;;1.38;1.27;;;;;;;;;;10452182;28;21523;-67
2022/05/22 14:42:01;;;;;;;4.25;1.27;;;;;;;;;;10472980;28;20297;-69
2022/05/22 14:47:06;;;;;;;5.82;2.45;;;;;;;;;;10523702;28;20061;-65
2022/05/22 14:52:20;;;;;;;2.25;1.70;;;;;;;;;;10501519;28;20059;-66
2022/05/22 14:57:27;;;;;;;6.60;1.77;;;;;;;;;;10465908;28;20450;-67
2022/05/22 15:02:37;;;;;;;9.00;2.05;;;;;;;;;;10471787;28;20044;-68
2022/05/22 15:07:51;;;;;;;5.10;1.98;;;;;;;;;;10463052;28;20113;-67
2022/05/22 15:12:54;;;;;;;2.92;1.80;;;;;;;;;;10476737;28;20082;-68
2022/05/22 15:18:03;;;;;;;5.78;1.20;;;;;;;;;;10471470;28;20298;-68
2022/05/22 15:28:36;;;;;;;2.55;1.27;;;;;;;;;;10531149;28;20358;-67
2022/05/22 15:33:45;;;;;;;5.87;1.90;;;;;;;;;;10516264;28;20082;-67
2022/05/22 15:38:56;;;;;;;1.55;1.42;;;;;;;;;;10507298;28;20045;-68
2022/05/22 15:44:22;;;;;;;2.35;1.17;;;;;;;;;;10472143;28;20109;-68
2022/05/22 15:54:50;;;;;;;7.63;2.00;;;;;;;;;;10529044;28;20067;-68
2022/05/22 15:59:53;;;;;;;6.53;1.70;;;;;;;;;;10479331;28;20079;-67
2022/05/22 16:04:55;;;;;;;3.22;1.48;;;;;;;;;;10496974;28;20052;-67
2022/05/22 16:09:59;;;;;;;7.07;1.42;;;;;;;;;;10492515;28;20076;-67
2022/05/22 16:15:01;;;;;;;1.95;1.60;;;;;;;;;;10504176;28;20094;-67
2022/05/22 16:20:09;;;;;;;2.33;1.50;;;;;;;;;;10509337;28;20048;-68
2022/05/22 16:25:14;;;;;;;2.95;1.65;;;;;;;;;;10529277;28;20379;-69
2022/05/22 16:30:17;;;;;;;1.73;1.20;;;;;;;;;;10515933;28;20040;-69
2022/05/22 16:35:23;;;;;;;6.20;2.63;;;;;;;;;;10508692;28;20052;-69
2022/05/22 16:40:27;;;;;;;4.82;2.72;;;;;;;;;;10497571;28;20083;-68
2022/05/22 16:45:30;;;;;;;;;;;;;;;;;;10513564;28;20327;-69
2022/05/22 16:55:56;;;;;;;2.88;1.60;;;;;;;;;;10473204;28;20048;-68
2022/05/22 17:01:05;;;;;;;2.58;1.55;;;;;;;;;;10494456;28;20060;-68
2022/05/22 17:06:10;;;;;;;1.80;1.30;;;;;;;;;;10515913;28;20059;-67
2022/05/22 17:11:26;;;;;;;4.50;1.70;;;;;;;;;;10495072;28;20033;-69
2022/05/22 17:16:29;;;;;;;1.73;1.27;;;;;;;;;;10517354;28;20044;-68
2022/05/22 17:21:31;;;;;;;3.40;2.05;;;;;;;;;;10481770;28;20076;-67
2022/05/22 17:26:35;;;;;;;6.10;1.63;;;;;;;;;;10476034;28;20060;-70
2022/05/22 17:31:37;;;;;;;1.60;1.50;;;;;;;;;;10507766;28;20051;-68
2022/05/22 17:36:41;;;;;;;3.95;2.38;;;;;;;;;;10490001;28;20068;-68
2022/05/22 17:41:45;;;;;;;4.50;2.10;;;;;;;;;;10505441;28;20243;-67
2022/05/22 17:46:48;;;;;;;2.47;1.93;;;;;;;;;;10522293;28;20061;-70
2022/05/22 17:51:50;;;;;;;3.78;2.17;;;;;;;;;;10519032;28;20048;-70
2022/05/22 17:56:54;;;;;;;5.97;2.15;;;;;;;;;;10522579;28;20071;-69
2022/05/22 18:01:56;;;;;;;3.00;2.20;;;;;;;;;;10524235;28;20063;-68
2022/05/22 18:06:59;;;;;;;4.10;2.70;;;;;;;;;;10516913;28;20053;-69
2022/05/22 18:17:22;;;;;;;7.03;2.65;;;;;;;;;;10533110;28;20098;-69
2022/05/22 18:22:30;;;;;;;4.40;2.58;;;;;;;;;;10498906;28;20059;-68
2022/05/22 18:27:34;;;;;;;4.57;2.63;;;;;;;;;;10484205;28;20149;-68
2022/05/22 18:32:39;;;;;;;19.70;3.15;;;;;;;;;;10468534;28;20076;-68
2022/05/22 18:37:42;;;;;;;5.43;3.28;;;;;;;;;;10451179;28;20057;-67
2022/05/22 18:42:48;;;;;;;5.70;2.85;;;;;;;;;;10464780;28;20076;-67
2022/05/22 18:47:51;;;;;;;3.70;2.65;;;;;;;;;;10482026;28;20412;-68
2022/05/22 18:52:54;;;;;;;2.40;2.20;;;;;;;;;;10474715;28;20077;-68
2022/05/22 18:57:58;;;;;;;3.67;2.30;;;;;;;;;;10477836;28;20359;-68
2022/05/22 19:03:02;;;;;;;4.55;2.58;;;;;;;;;;10478296;28;20045;-66
2022/05/22 19:08:07;;;;;;;9.70;2.50;;;;;;;;;;10513989;28;20075;-68
2022/05/22 19:13:13;;;;;;;;;;;;;;;;;;10518283;28;20047;-67
2022/05/22 19:18:16;;;;;;;7.72;2.92;;;;;;;;;;10457774;28;19956;-67
2022/05/22 19:23:18;;;;;;;3.90;2.60;;;;;;;;;;10432911;28;20216;-67
2022/05/22 19:28:26;;;;;;;4.55;2.63;;;;;;;;;;10474905;28;20033;-68
2022/05/22 19:33:30;;;;;;;6.60;2.70;;;;;;;;;;10492176;28;20072;-68
2022/05/22 19:38:33;;;;;;;3.25;2.38;;;;;;;;;;10495675;28;20255;-67
2022/05/22 19:48:58;;;;;;;3.90;2.70;;;;;;;;;;10522343;28;20052;-67
2022/05/22 19:58:35;;;;;;;3.58;3.00;;;;;;;;;;10487465;28;20117;-68
2022/05/22 19:59:24;;;;;;;5.68;3.42;;;;;;;;;;10517490;28;20055;-65
2022/05/22 20:04:26;;;;;;;7.57;4.03;;;;;;;;;;10501684;28;20292;-66
2022/05/22 20:09:33;;;;;;;5.40;3.78;;;;;;;;;;10518055;28;20086;-67
2022/05/22 20:14:37;;;;;;;9.68;4.90;;;;;;;;;;10523289;28;20043;-68
2022/05/22 20:19:42;;;;;;;8.90;3.78;;;;;;;;;;10437011;28;20290;-67
2022/05/22 20:24:44;;;;;;;8.52;3.83;;;;;;;;;;10493045;28;20094;-67
2022/05/22 20:29:49;;;;;;;21.77;9.85;;;;;;;;;;10494182;28;20034;-67
2022/05/22 20:34:51;;;;;;;34.78;13.57;;;;;;;;;;10493974;28;20350;-68
2022/05/22 20:39:53;;;;;;;24.20;10.27;;;;;;;;;;10517436;28;20040;-66
2022/05/22 20:44:57;;;;;;;15.48;5.43;;;;;;;;;;10500677;28;20151;-67
2022/05/22 20:50:02;;;;;;;13.07;6.60;;;;;;;;;;10475725;28;20043;-68
2022/05/22 20:55:05;;;;;;;12.43;7.05;;;;;;;;;;10503842;28;20049;-67
2022/05/22 21:00:12;;;;;;;18.27;7.03;;;;;;;;;;10510806;28;20072;-67
2022/05/22 21:05:14;;;;;;;7.38;5.45;;;;;;;;;;10513483;28;20068;-68
2022/05/22 21:10:17;;;;;;;6.07;4.38;;;;;;;;;;10478472;28;20073;-66
2022/05/22 21:15:20;;;;;;;11.00;4.40;;;;;;;;;;10471245;28;20049;-67
2022/05/22 21:20:23;;;;;;;5.18;4.18;;;;;;;;;;10480445;28;20224;-66
2022/05/22 21:30:47;;;;;;;8.38;4.50;;;;;;;;;;10487981;28;20076;-66
2022/05/22 21:35:50;;;;;;;7.72;4.72;;;;;;;;;;10480093;28;20073;-67
2022/05/22 21:40:54;;;;;;;9.60;4.70;;;;;;;;;;10462417;28;20371;-66
2022/05/22 21:45:58;;;;;;;10.52;5.05;;;;;;;;;;10477863;28;20371;-66
2022/05/22 21:51:00;;;;;;;8.02;4.75;;;;;;;;;;10478329;28;20056;-66
2022/05/22 21:56:07;;;;;;;8.13;4.32;;;;;;;;;;10501678;28;20056;-66
2022/05/22 22:01:20;;;;;;;7.78;5.15;;;;;;;;;;10511215;28;20306;-66
2022/05/22 22:06:22;;;;;;;8.25;4.68;;;;;;;;;;10492057;28;20067;-66
2022/05/22 22:11:25;;;;;;;7.28;4.43;;;;;;;;;;10496902;28;20347;-66
2022/05/22 22:16:29;;;;;;;13.88;5.43;;;;;;;;;;10477132;28;20077;-66
2022/05/22 22:21:33;;;;;;;8.02;4.85;;;;;;;;;;10478007;28;20287;-66
2022/05/22 22:26:35;;;;;;;12.75;5.47;;;;;;;;;;10478121;28;20044;-66
2022/05/22 22:31:39;;;;;;;8.80;5.82;;;;;;;;;;10496384;28;20049;-66
2022/05/22 22:36:41;;;;;;;6.63;5.53;;;;;;;;;;10477766;28;20076;-66
2022/05/22 22:41:44;;;;;;;10.60;6.03;;;;;;;;;;10478622;28;20103;-67
2022/05/22 22:46:49;;;;;;;6.78;4.88;;;;;;;;;;10509736;28;20289;-67
2022/05/22 22:51:51;;;;;;;16.63;6.45;;;;;;;;;;10518350;28;20040;-67
2022/05/22 23:02:15;;;;;;;8.02;5.57;;;;;;;;;;10489578;28;20246;-67
2022/05/22 23:07:17;;;;;;;8.48;5.75;;;;;;;;;;10460425;28;20045;-66
2022/05/22 23:12:22;;;;;;;14.02;6.18;;;;;;;;;;10476096;28;20041;-66
2022/05/22 23:17:25;;;;;;;9.23;5.68;;;;;;;;;;10486919;28;20389;-66
2022/05/22 23:22:28;;;;;;;11.25;6.25;;;;;;;;;;10474552;28;20351;-66
2022/05/22 23:27:37;;;;;;;10.63;6.65;;;;;;;;;;10490528;28;20041;-66
2022/05/22 23:32:41;;;;;;;13.02;6.35;;;;;;;;;;10473348;28;20049;-66
2022/05/22 23:37:48;;;;;;;9.35;5.38;;;;;;;;;;10475306;28;20060;-67
2022/05/22 23:42:50;;;;;;;9.02;5.65;;;;;;;;;;10513341;28;20049;-66
2022/05/22 23:47:54;;;;;;;13.15;5.75;;;;;;;;;;10455286;28;20287;-66
2022/05/22 23:52:57;;;;;;;12.65;5.50;;;;;;;;;;10477449;28;20040;-67
2022/05/22 23:58:00;;;;;;;8.50;4.85;;;;;;;;;;10517127;28;20044;-66
